createdAt,value
2018-11-02T00:00:15.560Z,814.67
2018-11-02T00:01:15.473Z,814.70
2018-11-02T00:02:15.481Z,814.73
2018-11-02T00:03:15.493Z,814.71
2018-11-02T00:04:15.504Z,814.67
2018-11-02T00:05:15.512Z,814.71
2018-11-02T00:06:15.573Z,814.65
2018-11-02T00:07:15.534Z,814.68
2018-11-02T00:08:15.543Z,814.67
2018-11-02T00:09:15.555Z,814.66
2018-11-02T00:10:15.562Z,814.69
2018-11-02T00:11:15.618Z,814.67
2018-11-02T00:12:15.654Z,814.67
2018-11-02T00:13:15.595Z,814.69
2018-11-02T00:14:15.601Z,814.72
2018-11-02T00:15:15.616Z,814.68
2018-11-02T00:16:15.625Z,814.65
2018-11-02T00:17:15.632Z,814.62
2018-11-02T00:18:15.641Z,814.67
2018-11-02T00:19:15.652Z,814.65
2018-11-02T00:20:15.663Z,814.62
2018-11-02T00:21:15.671Z,814.60
2018-11-02T00:22:15.681Z,814.61
2018-11-02T00:23:15.692Z,814.61
2018-11-02T00:24:15.703Z,814.61
2018-11-02T00:25:15.781Z,814.61
2018-11-02T00:26:15.725Z,814.63
2018-11-02T00:27:15.732Z,814.63
2018-11-02T00:28:15.749Z,814.66
2018-11-02T00:29:15.753Z,814.61
2018-11-02T00:30:15.764Z,814.66
2018-11-02T00:31:15.772Z,814.62
2018-11-02T00:32:15.782Z,814.61
2018-11-02T00:33:15.790Z,814.59
2018-11-02T00:34:15.801Z,814.57
2018-11-02T00:35:15.810Z,814.53
2018-11-02T00:36:15.819Z,814.53
2018-11-02T00:37:15.832Z,814.53
2018-11-02T00:38:15.842Z,814.53
2018-11-02T00:39:15.850Z,814.49
2018-11-02T00:40:15.860Z,814.55
2018-11-02T00:41:15.872Z,814.52
2018-11-02T00:42:15.878Z,814.49
2018-11-02T00:43:15.891Z,814.49
2018-11-02T00:44:15.902Z,814.46
2018-11-02T00:45:15.934Z,814.51
2018-11-02T00:46:15.961Z,814.50
2018-11-02T00:47:15.929Z,814.48
2018-11-02T00:48:16.020Z,814.52
2018-11-02T00:49:15.947Z,814.52
2018-11-02T00:50:15.961Z,814.54
2018-11-02T00:51:15.969Z,814.52
2018-11-02T00:52:15.976Z,814.53
2018-11-02T00:53:16.373Z,814.51
2018-11-02T00:54:15.997Z,814.48
2018-11-02T00:55:16.005Z,814.46
2018-11-02T00:56:16.017Z,814.48
2018-11-02T00:57:16.027Z,814.52
2018-11-02T00:58:16.033Z,814.48
2018-11-02T00:59:16.045Z,814.48
2018-11-02T01:00:16.054Z,814.46
2018-11-02T01:01:16.063Z,814.46
2018-11-02T01:02:16.074Z,814.48
2018-11-02T01:03:16.082Z,814.47
2018-11-02T01:04:16.092Z,814.48
2018-11-02T01:05:16.104Z,814.51
2018-11-02T01:06:16.112Z,814.48
2018-11-02T01:07:16.119Z,814.47
2018-11-02T01:08:16.130Z,814.49
2018-11-02T01:09:16.139Z,814.46
2018-11-02T01:10:16.148Z,814.45
2018-11-02T01:11:16.162Z,814.48
2018-11-02T01:12:16.168Z,814.49
2018-11-02T01:13:16.178Z,814.54
2018-11-02T01:14:16.186Z,814.54
2018-11-02T01:15:16.196Z,814.51
2018-11-02T01:16:16.220Z,814.49
2018-11-02T01:17:16.240Z,814.51
2018-11-02T01:18:16.227Z,814.52
2018-11-02T01:19:16.234Z,814.50
2018-11-02T01:20:16.244Z,814.47
2018-11-02T01:21:16.258Z,814.48
2018-11-02T01:22:16.263Z,814.50
2018-11-02T01:23:16.274Z,814.47
2018-11-02T01:24:16.283Z,814.46
2018-11-02T01:25:16.297Z,814.52
2018-11-02T01:26:16.310Z,814.51
2018-11-02T01:27:16.317Z,814.48
2018-11-02T01:28:16.321Z,814.46
2018-11-02T01:29:16.334Z,814.47
2018-11-02T01:30:16.342Z,814.42
2018-11-02T01:31:16.356Z,814.46
2018-11-02T01:32:16.365Z,814.45
2018-11-02T01:33:16.372Z,814.46
2018-11-02T01:34:16.411Z,814.52
2018-11-02T01:35:16.392Z,814.51
2018-11-02T01:36:16.402Z,814.51
2018-11-02T01:37:16.411Z,814.48
2018-11-02T01:38:16.418Z,814.49
2018-11-02T01:39:16.429Z,814.53
2018-11-02T01:40:16.440Z,814.55
2018-11-02T01:41:16.449Z,814.57
2018-11-02T01:42:16.470Z,814.56
2018-11-02T01:43:16.468Z,814.59
2018-11-02T01:44:16.477Z,814.59
2018-11-02T01:45:16.491Z,814.58
2018-11-02T01:46:16.498Z,814.56
2018-11-02T01:47:16.505Z,814.55
2018-11-02T01:48:16.516Z,814.53
2018-11-02T01:49:16.526Z,814.50
2018-11-02T01:50:16.535Z,814.48
2018-11-02T01:51:16.543Z,814.49
2018-11-02T01:52:16.555Z,814.43
2018-11-02T01:53:16.564Z,814.44
2018-11-02T01:54:16.572Z,814.44
2018-11-02T01:55:16.591Z,814.43
2018-11-02T01:56:16.593Z,814.44
2018-11-02T01:57:16.604Z,814.49
2018-11-02T01:58:16.612Z,814.52
2018-11-02T01:59:16.628Z,814.56
2018-11-02T02:00:16.632Z,814.60
2018-11-02T02:01:16.641Z,814.61
2018-11-02T02:02:16.652Z,814.59
2018-11-02T02:03:16.660Z,814.59
2018-11-02T02:04:16.669Z,814.58
2018-11-02T02:05:16.681Z,814.56
2018-11-02T02:06:16.688Z,814.56
2018-11-02T02:07:16.700Z,814.57
2018-11-02T02:08:16.708Z,814.53
2018-11-02T02:09:16.719Z,814.50
2018-11-02T02:10:16.726Z,814.54
2018-11-02T02:11:16.740Z,814.56
2018-11-02T02:12:16.747Z,814.60
2018-11-02T02:13:16.866Z,814.61
2018-11-02T02:14:16.767Z,814.62
2018-11-02T02:15:16.778Z,814.62
2018-11-02T02:16:16.784Z,814.61
2018-11-02T02:17:16.797Z,814.62
2018-11-02T02:18:16.804Z,814.63
2018-11-02T02:19:16.826Z,814.61
2018-11-02T02:20:16.820Z,814.60
2018-11-02T02:21:16.832Z,814.65
2018-11-02T02:22:16.841Z,814.63
2018-11-02T02:23:16.850Z,814.58
2018-11-02T02:24:16.860Z,814.63
2018-11-02T02:25:16.869Z,814.56
2018-11-02T02:26:16.879Z,814.53
2018-11-02T02:27:16.889Z,814.49
2018-11-02T02:28:16.898Z,814.52
2018-11-02T02:29:16.909Z,814.51
2018-11-02T02:30:16.918Z,814.51
2018-11-02T02:31:16.931Z,814.53
2018-11-02T02:32:16.935Z,814.57
2018-11-02T02:33:16.948Z,814.62
2018-11-02T02:34:16.960Z,814.61
2018-11-02T02:35:16.965Z,814.65
2018-11-02T02:36:16.970Z,814.62
2018-11-02T02:37:16.983Z,814.61
2018-11-02T02:38:16.990Z,814.61
2018-11-02T02:39:17.004Z,814.60
2018-11-02T02:40:17.009Z,814.56
2018-11-02T02:41:17.021Z,814.51
2018-11-02T02:42:17.028Z,814.51
2018-11-02T02:43:17.041Z,814.54
2018-11-02T02:44:17.045Z,814.55
2018-11-02T02:45:17.056Z,814.59
2018-11-02T02:46:17.065Z,814.60
2018-11-02T02:47:17.074Z,814.65
2018-11-02T02:48:17.084Z,814.67
2018-11-02T02:49:17.147Z,814.67
2018-11-02T02:50:17.102Z,814.70
2018-11-02T02:51:17.112Z,814.74
2018-11-02T02:52:17.121Z,814.68
2018-11-02T02:53:17.131Z,814.68
2018-11-02T02:54:17.142Z,814.69
2018-11-02T02:55:17.150Z,814.66
2018-11-02T02:56:17.160Z,814.70
2018-11-02T02:57:17.168Z,814.69
2018-11-02T02:58:17.177Z,814.70
2018-11-02T02:59:17.187Z,814.73
2018-11-02T03:00:17.199Z,814.73
2018-11-02T03:01:17.209Z,814.74
2018-11-02T03:02:17.217Z,814.71
2018-11-02T03:03:17.228Z,814.69
2018-11-02T03:04:17.234Z,814.71
2018-11-02T03:05:17.246Z,814.76
2018-11-02T03:06:17.252Z,814.78
2018-11-02T03:07:17.262Z,814.80
2018-11-02T03:08:17.272Z,814.81
2018-11-02T03:09:17.283Z,814.83
2018-11-02T03:10:17.330Z,814.82
2018-11-02T03:11:17.417Z,814.83
2018-11-02T03:12:17.319Z,814.81
2018-11-02T03:13:17.320Z,814.82
2018-11-02T03:14:17.329Z,814.84
2018-11-02T03:15:17.337Z,814.84
2018-11-02T03:16:17.353Z,814.82
2018-11-02T03:17:17.361Z,814.82
2018-11-02T03:18:17.366Z,814.79
2018-11-02T03:19:17.375Z,814.82
2018-11-02T03:20:17.386Z,814.85
2018-11-02T03:21:17.459Z,814.84
2018-11-02T03:22:17.462Z,814.81
2018-11-02T03:23:17.415Z,814.85
2018-11-02T03:24:17.426Z,814.86
2018-11-02T03:25:17.434Z,814.91
2018-11-02T03:26:17.443Z,814.87
2018-11-02T03:27:17.459Z,814.87
2018-11-02T03:28:17.465Z,814.87
2018-11-02T03:29:17.471Z,814.88
2018-11-02T03:30:17.489Z,814.80
2018-11-02T03:31:17.493Z,814.78
2018-11-02T03:32:17.505Z,814.79
2018-11-02T03:33:17.510Z,814.79
2018-11-02T03:34:17.519Z,814.84
2018-11-02T03:35:17.535Z,814.83
2018-11-02T03:36:17.537Z,814.85
2018-11-02T03:37:17.612Z,814.85
2018-11-02T03:38:17.557Z,814.85
2018-11-02T03:39:17.567Z,814.85
2018-11-02T03:40:17.575Z,814.83
2018-11-02T03:41:17.589Z,814.87
2018-11-02T03:42:17.595Z,814.85
2018-11-02T03:43:17.605Z,814.85
2018-11-02T03:44:17.613Z,814.89
2018-11-02T03:45:17.625Z,814.86
2018-11-02T03:46:17.632Z,814.89
2018-11-02T03:47:17.646Z,814.89
2018-11-02T03:48:17.652Z,814.86
2018-11-02T03:49:17.663Z,814.87
2018-11-02T03:50:17.672Z,814.90
2018-11-02T03:51:17.681Z,814.86
2018-11-02T03:52:17.689Z,814.87
2018-11-02T03:53:17.698Z,814.86
2018-11-02T03:54:17.709Z,814.85
2018-11-02T03:55:17.732Z,814.86
2018-11-02T03:56:17.794Z,814.91
2018-11-02T03:57:17.740Z,814.90
2018-11-02T03:58:17.748Z,814.91
2018-11-02T03:59:17.759Z,814.85
2018-11-02T04:00:17.768Z,814.87
2018-11-02T04:01:17.777Z,814.94
2018-11-02T04:02:17.786Z,814.95
2018-11-02T04:03:17.795Z,814.92
2018-11-02T04:04:17.804Z,814.94
2018-11-02T04:05:17.817Z,814.94
2018-11-02T04:06:17.827Z,814.97
2018-11-02T04:07:17.835Z,814.96
2018-11-02T04:08:17.844Z,814.93
2018-11-02T04:09:17.871Z,814.91
2018-11-02T04:10:17.864Z,814.94
2018-11-02T04:11:17.881Z,815.01
2018-11-02T04:12:17.884Z,814.95
2018-11-02T04:13:17.899Z,814.97
2018-11-02T04:14:17.905Z,814.93
2018-11-02T04:15:17.916Z,814.95
2018-11-02T04:16:17.925Z,814.88
2018-11-02T04:17:17.949Z,814.92
2018-11-02T04:18:17.942Z,814.87
2018-11-02T04:19:17.952Z,814.89
2018-11-02T04:20:17.961Z,814.85
2018-11-02T04:21:17.972Z,814.90
2018-11-02T04:22:17.980Z,814.89
2018-11-02T04:23:17.993Z,814.88
2018-11-02T04:24:18.000Z,814.90
2018-11-02T04:25:18.009Z,814.88
2018-11-02T04:26:18.023Z,814.95
2018-11-02T04:27:18.030Z,814.95
2018-11-02T04:28:18.038Z,814.99
2018-11-02T04:29:18.050Z,814.97
2018-11-02T04:30:18.058Z,814.97
2018-11-02T04:31:18.068Z,814.97
2018-11-02T04:32:18.084Z,814.98
2018-11-02T04:33:18.089Z,814.92
2018-11-02T04:34:18.096Z,814.96
2018-11-02T04:35:18.106Z,814.98
2018-11-02T04:36:18.117Z,814.99
2018-11-02T04:37:18.131Z,815.01
2018-11-02T04:38:18.135Z,814.99
2018-11-02T04:39:18.148Z,815.01
2018-11-02T04:40:18.158Z,814.99
2018-11-02T04:41:18.167Z,814.94
2018-11-02T04:42:18.227Z,814.89
2018-11-02T04:43:18.184Z,814.92
2018-11-02T04:44:18.193Z,814.92
2018-11-02T04:45:18.204Z,814.91
2018-11-02T04:46:18.214Z,814.96
2018-11-02T04:47:18.226Z,814.93
2018-11-02T04:48:18.234Z,814.97
2018-11-02T04:49:18.241Z,814.95
2018-11-02T04:50:18.252Z,815.00
2018-11-02T04:51:18.263Z,815.02
2018-11-02T04:52:18.273Z,815.04
2018-11-02T04:53:18.282Z,815.03
2018-11-02T04:54:18.295Z,815.05
2018-11-02T04:55:18.303Z,815.06
2018-11-02T04:56:18.310Z,815.04
2018-11-02T04:57:18.321Z,815.03
2018-11-02T04:58:18.329Z,815.04
2018-11-02T04:59:18.338Z,815.01
2018-11-02T05:00:18.348Z,815.02
2018-11-02T05:01:18.360Z,815.01
2018-11-02T05:02:18.367Z,815.03
2018-11-02T05:03:18.377Z,815.01
2018-11-02T05:04:18.388Z,814.98
2018-11-02T05:05:18.398Z,815.00
2018-11-02T05:06:18.405Z,814.99
2018-11-02T05:07:18.415Z,815.01
2018-11-02T05:08:18.426Z,815.03
2018-11-02T05:09:18.436Z,815.06
2018-11-02T05:10:18.444Z,815.06
2018-11-02T05:11:18.513Z,815.10
2018-11-02T05:12:18.495Z,815.05
2018-11-02T05:13:18.475Z,815.07
2018-11-02T05:14:18.485Z,815.07
2018-11-02T05:15:18.493Z,815.07
2018-11-02T05:16:18.504Z,815.06
2018-11-02T05:17:18.512Z,815.04
2018-11-02T05:18:18.521Z,815.02
2018-11-02T05:19:18.533Z,815.02
2018-11-02T05:20:18.543Z,815.04
2018-11-02T05:21:18.570Z,815.01
2018-11-02T05:22:18.581Z,815.00
2018-11-02T05:23:18.572Z,815.05
2018-11-02T05:24:18.591Z,815.03
2018-11-02T05:25:18.591Z,815.09
2018-11-02T05:26:18.601Z,815.08
2018-11-02T05:27:18.611Z,815.11
2018-11-02T05:28:18.621Z,815.11
2018-11-02T05:29:18.631Z,815.16
2018-11-02T05:30:18.640Z,815.17
2018-11-02T05:31:18.648Z,815.17
2018-11-02T05:32:18.659Z,815.18
2018-11-02T05:33:18.669Z,815.22
2018-11-02T05:34:18.678Z,815.21
2018-11-02T05:35:18.687Z,815.21
2018-11-02T05:36:18.698Z,815.22
2018-11-02T05:37:18.710Z,815.20
2018-11-02T05:38:18.717Z,815.16
2018-11-02T05:39:18.735Z,815.17
2018-11-02T05:40:18.736Z,815.15
2018-11-02T05:41:18.747Z,815.13
2018-11-02T05:42:18.770Z,815.18
2018-11-02T05:43:18.767Z,815.18
2018-11-02T05:44:18.790Z,815.16
2018-11-02T05:45:18.787Z,815.21
2018-11-02T05:46:18.795Z,815.23
2018-11-02T05:47:18.870Z,815.18
2018-11-02T05:48:18.816Z,815.19
2018-11-02T05:49:18.825Z,815.21
2018-11-02T05:50:18.836Z,815.23
2018-11-02T05:51:18.851Z,815.21
2018-11-02T05:52:18.855Z,815.22
2018-11-02T05:53:18.897Z,815.25
2018-11-02T05:54:18.985Z,815.23
2018-11-02T05:55:18.886Z,815.20
2018-11-02T05:56:18.900Z,815.23
2018-11-02T05:57:18.907Z,815.20
2018-11-02T05:58:18.932Z,815.22
2018-11-02T05:59:18.924Z,815.18
2018-11-02T06:00:18.937Z,815.22
2018-11-02T06:01:18.992Z,815.20
2018-11-02T06:02:18.952Z,815.18
2018-11-02T06:03:18.981Z,815.18
2018-11-02T06:04:18.971Z,815.23
2018-11-02T06:05:18.982Z,815.23
2018-11-02T06:06:18.991Z,815.26
2018-11-02T06:07:19.001Z,815.24
2018-11-02T06:08:19.011Z,815.25
2018-11-02T06:09:19.025Z,815.27
2018-11-02T06:10:19.029Z,815.26
2018-11-02T06:11:19.040Z,815.26
2018-11-02T06:12:19.054Z,815.29
2018-11-02T06:13:19.060Z,815.27
2018-11-02T06:14:19.068Z,815.26
2018-11-02T06:15:19.078Z,815.26
2018-11-02T06:16:19.090Z,815.29
2018-11-02T06:17:19.101Z,815.33
2018-11-02T06:18:19.107Z,815.33
2018-11-02T06:19:19.115Z,815.31
2018-11-02T06:20:19.128Z,815.32
2018-11-02T06:21:19.138Z,815.33
2018-11-02T06:22:19.177Z,815.32
2018-11-02T06:23:19.155Z,815.38
2018-11-02T06:24:19.213Z,815.40
2018-11-02T06:25:19.177Z,815.43
2018-11-02T06:26:19.185Z,815.46
2018-11-02T06:27:19.202Z,815.44
2018-11-02T06:28:19.204Z,815.45
2018-11-02T06:29:19.214Z,815.46
2018-11-02T06:30:19.223Z,815.47
2018-11-02T06:31:19.234Z,815.49
2018-11-02T06:32:19.241Z,815.51
2018-11-02T06:33:19.257Z,815.56
2018-11-02T06:34:19.263Z,815.49
2018-11-02T06:35:19.276Z,815.56
2018-11-02T06:36:19.286Z,815.57
2018-11-02T06:37:19.290Z,815.57
2018-11-02T06:38:19.300Z,815.56
2018-11-02T06:39:19.310Z,815.56
2018-11-02T06:40:19.318Z,815.56
2018-11-02T06:41:19.330Z,815.53
2018-11-02T06:42:19.342Z,815.56
2018-11-02T06:43:19.351Z,815.53
2018-11-02T06:44:19.363Z,815.57
2018-11-02T06:45:19.435Z,815.60
2018-11-02T06:46:19.397Z,815.64
2018-11-02T06:47:19.387Z,815.59
2018-11-02T06:48:19.397Z,815.66
2018-11-02T06:49:19.408Z,815.69
2018-11-02T06:50:19.417Z,815.74
2018-11-02T06:51:19.427Z,815.72
2018-11-02T06:52:19.437Z,815.73
2018-11-02T06:53:19.448Z,815.80
2018-11-02T06:54:19.454Z,815.80
2018-11-02T06:55:19.464Z,815.79
2018-11-02T06:56:19.474Z,815.84
2018-11-02T06:57:19.483Z,815.87
2018-11-02T06:58:19.494Z,815.84
2018-11-02T06:59:19.574Z,815.84
2018-11-02T07:00:19.570Z,815.86
2018-11-02T07:01:19.531Z,815.80
2018-11-02T07:02:19.533Z,815.79
2018-11-02T07:03:19.543Z,815.81
2018-11-02T07:04:19.552Z,815.82
2018-11-02T07:05:19.562Z,815.82
2018-11-02T07:06:19.571Z,815.82
2018-11-02T07:07:19.655Z,815.82
2018-11-02T07:08:19.680Z,815.80
2018-11-02T07:09:19.602Z,815.84
2018-11-02T07:10:19.642Z,815.83
2018-11-02T07:11:19.620Z,815.83
2018-11-02T07:12:19.630Z,815.84
2018-11-02T07:13:19.640Z,815.85
2018-11-02T07:14:19.650Z,815.88
2018-11-02T07:15:19.687Z,815.92
2018-11-02T07:16:19.668Z,815.93
2018-11-02T07:17:19.679Z,815.96
2018-11-02T07:18:19.690Z,815.95
2018-11-02T07:19:19.700Z,815.95
2018-11-02T07:20:19.707Z,815.97
2018-11-02T07:21:19.719Z,815.93
2018-11-02T07:22:19.724Z,815.97
2018-11-02T07:23:19.739Z,816.01
2018-11-02T07:24:19.746Z,816.01
2018-11-02T07:25:19.887Z,816.04
2018-11-02T07:26:19.768Z,816.03
2018-11-02T07:27:19.775Z,816.05
2018-11-02T07:28:19.786Z,816.08
2018-11-02T07:29:19.794Z,816.05
2018-11-02T07:30:19.802Z,816.08
2018-11-02T07:31:19.813Z,816.05
2018-11-02T07:32:19.823Z,816.07
2018-11-02T07:33:19.836Z,816.08
2018-11-02T07:34:19.848Z,816.14
2018-11-02T07:35:19.880Z,816.09
2018-11-02T07:36:19.864Z,816.11
2018-11-02T07:37:19.872Z,816.12
2018-11-02T07:38:19.884Z,816.11
2018-11-02T07:39:19.895Z,816.08
2018-11-02T07:40:19.909Z,816.09
2018-11-02T07:41:19.918Z,816.04
2018-11-02T07:42:19.927Z,816.08
2018-11-02T07:43:19.935Z,816.05
2018-11-02T07:44:19.943Z,816.06
2018-11-02T07:45:19.954Z,816.08
2018-11-02T07:46:19.966Z,816.05
2018-11-02T07:47:20.005Z,816.05
2018-11-02T07:48:19.985Z,816.06
2018-11-02T07:49:20.019Z,816.05
2018-11-02T07:50:20.003Z,816.04
2018-11-02T07:51:20.016Z,816.06
2018-11-02T07:52:20.045Z,816.05
2018-11-02T07:53:20.069Z,816.04
2018-11-02T07:54:20.042Z,816.00
2018-11-02T07:55:20.053Z,816.00
2018-11-02T07:56:20.065Z,816.04
2018-11-02T07:57:20.073Z,816.03
2018-11-02T07:58:20.081Z,816.01
2018-11-02T07:59:20.092Z,816.01
2018-11-02T08:00:20.105Z,816.05
2018-11-02T08:01:20.118Z,816.08
2018-11-02T08:02:20.121Z,816.04
2018-11-02T08:03:20.165Z,816.06
2018-11-02T08:04:20.145Z,816.11
2018-11-02T08:05:20.152Z,816.13
2018-11-02T08:06:20.161Z,816.14
2018-11-02T08:07:20.172Z,816.14
2018-11-02T08:08:20.183Z,816.16
2018-11-02T08:09:20.192Z,816.17
2018-11-02T08:10:20.205Z,816.13
2018-11-02T08:11:20.262Z,816.10
2018-11-02T08:12:20.224Z,816.13
2018-11-02T08:13:20.233Z,816.10
2018-11-02T08:14:20.244Z,816.11
2018-11-02T08:15:20.252Z,816.13
2018-11-02T08:16:20.267Z,816.17
2018-11-02T08:17:20.273Z,816.17
2018-11-02T08:18:20.284Z,816.20
2018-11-02T08:19:20.292Z,816.23
2018-11-02T08:20:20.304Z,816.25
2018-11-02T08:21:20.318Z,816.22
2018-11-02T08:22:20.322Z,816.23
2018-11-02T08:23:20.334Z,816.21
2018-11-02T08:24:20.430Z,816.23
2018-11-02T08:25:20.355Z,816.26
2018-11-02T08:26:20.363Z,816.27
2018-11-02T08:27:20.372Z,816.25
2018-11-02T08:28:20.384Z,816.24
2018-11-02T08:29:20.391Z,816.29
2018-11-02T08:30:20.400Z,816.28
2018-11-02T08:31:20.466Z,816.28
2018-11-02T08:32:20.422Z,816.24
2018-11-02T08:33:20.432Z,816.29
2018-11-02T08:34:20.444Z,816.23
2018-11-02T08:35:20.451Z,816.26
2018-11-02T08:36:20.461Z,816.27
2018-11-02T08:37:20.472Z,816.24
2018-11-02T08:38:20.482Z,816.27
2018-11-02T08:39:20.493Z,816.25
2018-11-02T08:40:20.500Z,816.29
2018-11-02T08:41:20.515Z,816.25
2018-11-02T08:42:20.533Z,816.30
2018-11-02T08:43:20.534Z,816.29
2018-11-02T08:44:20.543Z,816.30
2018-11-02T08:45:20.553Z,816.30
2018-11-02T08:46:20.611Z,816.22
2018-11-02T08:47:20.571Z,816.21
2018-11-02T08:48:20.585Z,816.21
2018-11-02T08:49:20.595Z,816.23
2018-11-02T08:50:20.603Z,816.20
2018-11-02T08:51:20.613Z,816.18
2018-11-02T08:52:20.738Z,816.23
2018-11-02T08:53:20.633Z,816.21
2018-11-02T08:54:20.644Z,816.24
2018-11-02T08:55:20.652Z,816.26
2018-11-02T08:56:20.662Z,816.29
2018-11-02T08:57:20.671Z,816.28
2018-11-02T08:58:20.849Z,816.28
2018-11-02T08:59:20.804Z,816.29
2018-11-02T09:00:20.925Z,816.27
2018-11-02T09:01:20.714Z,816.28
2018-11-02T09:02:20.722Z,816.23
2018-11-02T09:03:20.733Z,816.25
2018-11-02T09:04:20.745Z,816.25
2018-11-02T09:05:20.752Z,816.22
2018-11-02T09:06:20.769Z,816.26
2018-11-02T09:07:20.775Z,816.18
2018-11-02T09:08:20.785Z,816.21
2018-11-02T09:09:20.796Z,816.19
2018-11-02T09:10:20.804Z,816.20
2018-11-02T09:11:20.815Z,816.20
2018-11-02T09:12:20.831Z,816.25
2018-11-02T09:13:20.836Z,816.35
2018-11-02T09:14:20.850Z,816.38
2018-11-02T09:15:20.857Z,816.46
2018-11-02T09:16:20.867Z,816.45
2018-11-02T09:17:20.876Z,816.43
2018-11-02T09:18:20.945Z,816.50
2018-11-02T09:19:20.919Z,816.43
2018-11-02T09:20:20.911Z,816.42
2018-11-02T09:21:20.923Z,816.43
2018-11-02T09:22:20.930Z,816.42
2018-11-02T09:23:20.940Z,816.47
2018-11-02T09:24:20.965Z,816.51
2018-11-02T09:25:20.963Z,816.48
2018-11-02T09:26:20.974Z,816.50
2018-11-02T09:27:21.058Z,816.49
2018-11-02T09:28:20.995Z,816.49
2018-11-02T09:29:21.005Z,816.49
2018-11-02T09:30:21.018Z,816.49
2018-11-02T09:31:21.027Z,816.46
2018-11-02T09:32:21.038Z,816.47
2018-11-02T09:33:21.053Z,816.46
2018-11-02T09:34:21.058Z,816.50
2018-11-02T09:35:21.073Z,816.49
2018-11-02T09:36:21.081Z,816.53
2018-11-02T09:37:21.109Z,816.54
2018-11-02T09:38:21.101Z,816.54
2018-11-02T09:39:21.113Z,816.54
2018-11-02T09:40:21.180Z,816.50
2018-11-02T09:41:21.136Z,816.51
2018-11-02T09:42:21.152Z,816.50
2018-11-02T09:43:21.155Z,816.54
2018-11-02T09:44:21.164Z,816.58
2018-11-02T09:45:21.175Z,816.58
2018-11-02T09:46:21.186Z,816.60
2018-11-02T09:47:21.197Z,816.62
2018-11-02T09:48:21.207Z,816.64
2018-11-02T09:49:21.218Z,816.66
2018-11-02T09:50:21.228Z,816.71
2018-11-02T09:51:21.310Z,816.73
2018-11-02T09:52:21.248Z,816.77
2018-11-02T09:53:21.260Z,816.74
2018-11-02T09:54:21.270Z,816.76
2018-11-02T09:55:21.283Z,816.75
2018-11-02T09:56:21.292Z,816.72
2018-11-02T09:57:21.302Z,816.68
2018-11-02T09:58:21.311Z,816.67
2018-11-02T09:59:21.324Z,816.69
2018-11-02T10:00:21.335Z,816.68
2018-11-02T10:01:21.353Z,816.70
2018-11-02T10:02:21.358Z,816.68
2018-11-02T10:03:21.367Z,816.64
2018-11-02T10:04:21.376Z,816.69
2018-11-02T10:05:21.387Z,816.69
2018-11-02T10:06:21.399Z,816.65
2018-11-02T10:07:21.409Z,816.63
2018-11-02T10:08:21.468Z,816.65
2018-11-02T10:09:21.471Z,816.62
2018-11-02T10:10:21.441Z,816.65
2018-11-02T10:11:21.453Z,816.62
2018-11-02T10:12:21.485Z,816.64
2018-11-02T10:13:21.473Z,816.62
2018-11-02T10:14:21.488Z,816.64
2018-11-02T10:15:21.495Z,816.61
2018-11-02T10:16:21.506Z,816.57
2018-11-02T10:17:21.516Z,816.60
2018-11-02T10:18:21.530Z,816.58
2018-11-02T10:19:21.541Z,816.55
2018-11-02T10:20:21.548Z,816.55
2018-11-02T10:21:21.559Z,816.54
2018-11-02T10:22:21.569Z,816.50
2018-11-02T10:23:21.580Z,816.48
2018-11-02T10:24:21.600Z,816.52
2018-11-02T10:25:21.604Z,816.53
2018-11-02T10:26:21.615Z,816.55
2018-11-02T10:27:21.623Z,816.53
2018-11-02T10:28:21.793Z,816.54
2018-11-02T10:29:21.648Z,816.51
2018-11-02T10:30:21.666Z,816.54
2018-11-02T10:31:21.668Z,816.52
2018-11-02T10:32:21.700Z,816.59
2018-11-02T10:33:21.690Z,816.62
2018-11-02T10:34:21.704Z,816.62
2018-11-02T10:35:21.727Z,816.66
2018-11-02T10:36:21.720Z,816.64
2018-11-02T10:37:21.731Z,816.69
2018-11-02T10:38:21.744Z,816.73
2018-11-02T10:39:21.851Z,816.68
2018-11-02T10:40:21.762Z,816.72
2018-11-02T10:41:21.776Z,816.74
2018-11-02T10:42:21.786Z,816.73
2018-11-02T10:43:21.795Z,816.72
2018-11-02T10:44:21.872Z,816.70
2018-11-02T10:45:21.823Z,816.77
2018-11-02T10:46:21.829Z,816.80
2018-11-02T10:47:21.838Z,816.87
2018-11-02T10:48:21.855Z,816.84
2018-11-02T10:49:21.947Z,816.88
2018-11-02T10:50:21.872Z,816.85
2018-11-02T10:51:21.890Z,816.83
2018-11-02T10:52:21.897Z,816.81
2018-11-02T10:53:21.908Z,816.78
2018-11-02T10:54:21.950Z,816.80
2018-11-02T10:55:21.927Z,816.81
2018-11-02T10:56:21.978Z,816.79
2018-11-02T10:57:21.950Z,816.77
2018-11-02T10:58:21.960Z,816.74
2018-11-02T10:59:21.972Z,816.74
2018-11-02T11:00:21.981Z,816.78
2018-11-02T11:01:22.039Z,816.77
2018-11-02T11:02:22.002Z,816.78
2018-11-02T11:03:22.013Z,816.76
2018-11-02T11:04:22.023Z,816.74
2018-11-02T11:05:22.117Z,816.74
2018-11-02T11:06:22.046Z,816.68
2018-11-02T11:07:22.058Z,816.71
2018-11-02T11:08:22.069Z,816.68
2018-11-02T11:09:22.081Z,816.64
2018-11-02T11:10:22.089Z,816.65
2018-11-02T11:11:22.110Z,816.60
2018-11-02T11:12:22.258Z,816.58
2018-11-02T11:13:22.546Z,816.61
2018-11-02T11:14:22.132Z,816.65
2018-11-02T11:15:22.145Z,816.67
2018-11-02T11:16:22.157Z,816.70
2018-11-02T11:17:22.168Z,816.68
2018-11-02T11:18:22.176Z,816.72
2018-11-02T11:19:22.190Z,816.77
2018-11-02T11:20:22.199Z,816.77
2018-11-02T11:21:22.248Z,816.76
2018-11-02T11:22:22.224Z,816.78
2018-11-02T11:23:22.238Z,816.80
2018-11-02T11:24:22.245Z,816.81
2018-11-02T11:25:22.259Z,816.83
2018-11-02T11:26:22.265Z,816.85
2018-11-02T11:27:22.295Z,816.84
2018-11-02T11:28:22.287Z,816.82
2018-11-02T11:29:22.429Z,816.85
2018-11-02T11:30:22.313Z,816.80
2018-11-02T11:31:22.325Z,816.76
2018-11-02T11:32:22.349Z,816.78
2018-11-02T11:33:22.342Z,816.75
2018-11-02T11:34:22.354Z,816.75
2018-11-02T11:35:22.363Z,816.73
2018-11-02T11:36:22.373Z,816.75
2018-11-02T11:37:22.387Z,816.76
2018-11-02T11:38:22.395Z,816.87
2018-11-02T11:39:22.406Z,816.80
2018-11-02T11:40:22.417Z,816.79
2018-11-02T11:41:22.428Z,816.79
2018-11-02T11:42:22.438Z,816.78
2018-11-02T11:43:22.479Z,816.77
2018-11-02T11:44:22.463Z,816.76
2018-11-02T11:45:22.468Z,816.80
2018-11-02T11:46:22.480Z,816.85
2018-11-02T11:47:22.490Z,816.84
2018-11-02T11:48:22.523Z,816.86
2018-11-02T11:49:22.540Z,816.87
2018-11-02T11:50:22.521Z,816.88
2018-11-02T11:51:22.534Z,816.92
2018-11-02T11:52:22.543Z,816.89
2018-11-02T11:53:22.553Z,816.87
2018-11-02T11:54:22.634Z,816.93
2018-11-02T11:55:22.578Z,816.90
2018-11-02T11:56:22.588Z,816.95
2018-11-02T11:57:22.594Z,816.92
2018-11-02T11:58:22.605Z,816.92
2018-11-02T11:59:22.614Z,816.92
2018-11-02T12:00:22.625Z,816.92
2018-11-02T12:01:22.636Z,816.94
2018-11-02T12:02:22.741Z,816.93
2018-11-02T12:03:22.656Z,816.90
2018-11-02T12:04:22.696Z,816.94
2018-11-02T12:05:22.678Z,816.90
2018-11-02T12:06:22.688Z,816.90
2018-11-02T12:07:22.696Z,816.93
2018-11-02T12:08:22.710Z,816.95
2018-11-02T12:09:22.794Z,816.91
2018-11-02T12:10:22.790Z,816.89
2018-11-02T12:11:22.741Z,816.90
2018-11-02T12:12:22.750Z,816.91
2018-11-02T12:13:22.760Z,816.86
2018-11-02T12:14:22.768Z,816.93
2018-11-02T12:15:22.778Z,816.94
2018-11-02T12:16:22.792Z,816.97
2018-11-02T12:17:22.801Z,816.97
2018-11-02T12:18:22.810Z,816.92
2018-11-02T12:19:22.819Z,816.94
2018-11-02T12:20:22.830Z,816.99
2018-11-02T12:21:22.841Z,816.93
2018-11-02T12:22:22.848Z,816.94
2018-11-02T12:23:22.865Z,816.94
2018-11-02T12:24:22.871Z,816.91
2018-11-02T12:25:22.880Z,816.87
2018-11-02T12:26:22.893Z,816.85
2018-11-02T12:27:22.903Z,816.83
2018-11-02T12:28:22.969Z,816.83